Time;durP1;ratioP1;P1;durP2;ratioP2;P2;SDS_P1;SDS_P2;PMS_P1;PMS_P2;Temp;Humidity;BMP_temperature;BMP_pressure;BME280_temperature;BME280_humidity;BME280_pressure;Samples;Min_cycle;Max_cycle;Signal;HPM_P1;HPM_P2
2022/10/31 00:01:27;;;;;;;2.77;1.70;;;8.00;99.90;;;;;;5097503;27;20421;-67
2022/10/31 00:03:59;;;;;;;9.98;1.90;;;8.00;99.90;;;;;;5107642;28;20420;-67
2022/10/31 00:06:29;;;;;;;2.83;1.27;;;8.10;99.90;;;;;;5103008;28;20422;-67
2022/10/31 00:08:59;;;;;;;0.93;0.93;;;8.10;99.90;;;;;;5092417;27;20430;-67
2022/10/31 00:11:26;;;;;;;1.58;0.90;;;8.10;99.90;;;;;;5097773;28;20606;-67
2022/10/31 00:13:53;;;;;;;1.20;1.17;;;8.00;99.90;;;;;;5097789;28;20473;-67
2022/10/31 00:16:22;;;;;;;1.90;1.45;;;8.00;99.90;;;;;;5100572;28;20424;-67
2022/10/31 00:18:50;;;;;;;2.40;1.37;;;8.00;99.90;;;;;;5095578;28;20436;-67
2022/10/31 00:21:17;;;;;;;1.70;1.60;;;8.00;99.90;;;;;;5096813;28;20483;-67
2022/10/31 00:23:44;;;;;;;1.70;1.60;;;8.00;99.90;;;;;;5104966;27;20483;-67
2022/10/31 00:26:11;;;;;;;1.53;1.30;;;8.00;99.90;;;;;;5107659;28;20902;-67
2022/10/31 00:28:38;;;;;;;1.92;1.73;;;8.10;99.90;;;;;;5104013;28;20420;-67
2022/10/31 00:31:07;;;;;;;1.70;1.60;;;8.20;99.90;;;;;;5097704;28;20958;-67
2022/10/31 00:33:36;;;;;;;3.20;1.42;;;8.20;99.90;;;;;;5089622;28;20473;-67
2022/10/31 00:36:04;;;;;;;1.98;1.65;;;8.20;99.90;;;;;;5102608;28;20424;-67
2022/10/31 00:38:32;;;;;;;1.57;1.47;;;8.20;99.90;;;;;;5100743;28;20477;-67
2022/10/31 00:40:59;;;;;;;4.05;1.63;;;8.10;99.90;;;;;;5079850;28;20422;-67
2022/10/31 00:43:27;;;;;;;1.92;1.83;;;8.00;99.90;;;;;;5086335;28;20966;-67
2022/10/31 00:45:53;;;;;;;1.77;1.67;;;7.90;99.90;;;;;;5106497;28;20430;-67
2022/10/31 00:48:20;;;;;;;1.57;1.47;;;7.90;99.90;;;;;;5101085;28;20438;-67
2022/10/31 00:50:47;;;;;;;1.42;1.33;;;7.90;99.90;;;;;;5107571;28;20960;-67
2022/10/31 00:53:16;;;;;;;2.25;2.05;;;7.80;99.90;;;;;;5099819;27;20639;-67
2022/10/31 00:55:43;;;;;;;1.47;1.23;;;7.70;99.90;;;;;;5099414;28;20503;-67
2022/10/31 00:58:13;;;;;;;2.28;1.67;;;7.60;99.90;;;;;;5102600;28;20967;-67
2022/10/31 01:00:54;;;;;;;2.15;1.83;;;7.60;99.90;;;;;;5104839;28;20443;-67
2022/10/31 01:03:28;;;;;;;1.88;1.75;;;7.60;99.90;;;;;;5086444;28;20424;-67
2022/10/31 01:06:01;;;;;;;1.83;1.73;;;7.60;99.90;;;;;;5102305;27;20418;-67
2022/10/31 01:08:28;;;;;;;2.00;1.90;;;7.60;99.90;;;;;;5104687;28;20420;-67
2022/10/31 01:11:00;;;;;;;1.35;1.30;;;7.60;99.90;;;;;;5104931;28;20426;-67
2022/10/31 01:13:27;;;;;;;2.80;1.52;;;7.60;99.90;;;;;;5099109;28;21337;-67
2022/10/31 01:15:58;;;;;;;4.63;1.90;;;7.60;99.90;;;;;;5099330;28;20507;-67
2022/10/31 01:18:25;;;;;;;2.38;2.10;;;7.60;99.90;;;;;;5105221;28;20469;-67
2022/10/31 01:21:22;;;;;;;1.90;1.40;;;7.60;99.90;;;;;;5095126;28;20452;-67
2022/10/31 01:23:50;;;;;;;1.40;1.30;;;7.60;99.90;;;;;;5098085;28;20922;-67
2022/10/31 01:26:18;;;;;;;1.85;1.33;;;7.60;99.90;;;;;;5095379;28;20810;-67
2022/10/31 01:28:51;;;;;;;1.15;0.88;;;7.70;99.90;;;;;;5082302;28;20432;-67
2022/10/31 01:31:20;;;;;;;1.25;1.25;;;7.80;99.90;;;;;;5100359;28;20845;-67
2022/10/31 01:33:46;;;;;;;1.25;1.15;;;7.90;99.90;;;;;;5102188;27;20428;-67
2022/10/31 01:36:17;;;;;;;2.55;1.23;;;8.00;99.90;;;;;;5096549;28;21194;-67
2022/10/31 01:38:46;;;;;;;1.15;1.08;;;8.00;99.90;;;;;;5098509;28;20513;-67
2022/10/31 01:41:16;;;;;;;3.88;1.25;;;8.10;99.90;;;;;;5092303;28;20487;-67
2022/10/31 01:43:55;;;;;;;0.80;0.80;;;8.10;99.90;;;;;;5105384;27;20428;-67
2022/10/31 01:46:50;;;;;;;0.77;0.77;;;8.00;99.90;;;;;;5106688;28;20428;-66
2022/10/31 01:49:23;;;;;;;1.00;0.90;;;8.00;99.90;;;;;;5047011;28;20428;-67
2022/10/31 01:51:58;;;;;;;1.42;1.33;;;7.90;99.90;;;;;;5092966;28;20438;-67
2022/10/31 01:54:31;;;;;;;0.63;0.63;;;7.80;99.90;;;;;;5091507;28;20517;-67
2022/10/31 01:57:00;;;;;;;1.05;0.70;;;7.70;99.90;;;;;;5096369;28;20435;-67
2022/10/31 01:59:32;;;;;;;0.82;0.82;;;7.70;99.90;;;;;;5089678;28;20474;-67
2022/10/31 02:01:58;;;;;;;0.65;0.63;;;7.80;99.90;;;;;;5094636;28;20424;-66
2022/10/31 02:04:27;;;;;;;0.80;0.80;;;7.70;99.90;;;;;;5088645;28;20433;-67
2022/10/31 02:07:02;;;;;;;0.80;0.63;;;7.70;99.90;;;;;;5098260;28;20427;-67
2022/10/31 02:09:30;;;;;;;0.82;0.82;;;7.60;99.90;;;;;;5101294;28;20437;-67
2022/10/31 02:11:59;;;;;;;0.73;0.73;;;7.50;99.90;;;;;;5101562;28;20426;-66
2022/10/31 02:14:28;;;;;;;1.10;0.90;;;7.50;99.90;;;;;;5091259;27;20422;-67
2022/10/31 02:16:55;;;;;;;0.75;0.75;;;7.40;99.90;;;;;;5102180;28;20788;-67
2022/10/31 02:19:47;;;;;;;1.30;1.23;;;7.40;99.90;;;;;;5102891;28;20426;-67
2022/10/31 02:22:27;;;;;;;0.85;0.85;;;7.40;99.90;;;;;;5095354;28;20416;-67
2022/10/31 02:25:17;;;;;;;2.10;1.63;;;7.30;99.90;;;;;;5100053;28;20498;-67
2022/10/31 02:28:03;;;;;;;1.13;0.88;;;7.30;99.90;;;;;;5096321;28;20439;-67
2022/10/31 02:30:58;;;;;;;3.60;1.20;;;7.30;99.90;;;;;;5099779;28;20419;-67
2022/10/31 02:33:39;;;;;;;0.90;0.90;;;7.40;99.90;;;;;;5078107;28;20419;-67
2022/10/31 02:36:09;;;;;;;0.93;0.93;;;7.50;99.90;;;;;;5096464;28;20433;-67
2022/10/31 02:39:31;;;;;;;1.13;1.13;;;7.60;99.90;;;;;;5090343;28;20441;-69
2022/10/31 02:42:32;;;;;;;0.75;0.73;;;7.70;99.90;;;;;;5050276;27;20431;-68
2022/10/31 02:45:10;;;;;;;0.70;0.70;;;7.80;99.90;;;;;;5089239;28;20436;-68
2022/10/31 02:47:38;;;;;;;1.00;1.00;;;7.80;99.90;;;;;;5098368;28;20446;-68
2022/10/31 02:50:16;;;;;;;1.08;1.08;;;7.80;99.90;;;;;;5091723;28;20429;-68
2022/10/31 02:52:43;;;;;;;0.95;0.85;;;7.70;99.90;;;;;;5096379;28;20437;-68
2022/10/31 02:55:24;;;;;;;1.25;1.15;;;7.70;99.90;;;;;;5097382;28;20423;-68
2022/10/31 02:57:55;;;;;;;1.37;1.33;;;7.60;99.90;;;;;;5098904;28;20569;-68
2022/10/31 03:00:22;;;;;;;1.30;0.90;;;7.60;99.90;;;;;;5099100;28;20513;-68
2022/10/31 03:02:52;;;;;;;1.00;1.00;;;7.60;99.90;;;;;;5098108;28;20552;-68
2022/10/31 03:05:30;;;;;;;1.27;1.27;;;7.50;99.90;;;;;;5104186;28;20477;-68
2022/10/31 03:08:19;;;;;;;0.80;0.80;;;7.40;99.90;;;;;;5099169;28;20809;-68
2022/10/31 03:10:51;;;;;;;1.10;1.00;;;7.40;99.90;;;;;;5094454;28;20829;-68
2022/10/31 03:13:36;;;;;;;1.05;1.05;;;7.40;99.90;;;;;;5094596;28;20436;-68
2022/10/31 03:16:11;;;;;;;0.90;0.90;;;7.50;99.90;;;;;;5102215;28;20435;-68
2022/10/31 03:19:02;;;;;;;0.80;0.80;;;7.50;99.90;;;;;;5094777;28;21046;-68
2022/10/31 03:21:42;;;;;;;1.42;0.73;;;7.60;99.90;;;;;;5099395;28;20434;-68
2022/10/31 03:24:11;;;;;;;0.80;0.80;;;7.50;99.90;;;;;;5097899;28;20452;-68
2022/10/31 03:26:46;;;;;;;1.13;1.13;;;7.50;99.90;;;;;;5104788;28;20428;-68
2022/10/31 03:29:18;;;;;;;0.80;0.80;;;7.40;99.90;;;;;;5102556;28;20424;-68
2022/10/31 03:31:49;;;;;;;0.75;0.75;;;7.40;99.90;;;;;;5100579;28;20431;-68
2022/10/31 03:34:19;;;;;;;1.00;0.98;;;7.40;99.90;;;;;;5104526;28;20430;-68
2022/10/31 03:36:49;;;;;;;0.93;0.93;;;7.40;99.90;;;;;;5096871;28;20430;-68
2022/10/31 03:39:19;;;;;;;1.60;1.08;;;7.40;99.90;;;;;;5102622;28;20461;-68
2022/10/31 03:42:19;;;;;;;1.35;0.80;;;7.40;99.90;;;;;;5101700;28;20477;-68
2022/10/31 03:44:56;;;;;;;0.85;0.85;;;7.40;99.90;;;;;;5034360;28;20431;-69
2022/10/31 03:47:26;;;;;;;1.42;0.63;;;7.40;99.90;;;;;;5048245;28;20489;-68
2022/10/31 03:49:54;;;;;;;0.90;0.90;;;7.30;99.90;;;;;;5043853;28;20487;-68
2022/10/31 03:52:47;;;;;;;0.70;0.70;;;7.20;99.90;;;;;;5045786;28;20429;-68
2022/10/31 03:55:21;;;;;;;1.13;1.13;;;7.20;99.90;;;;;;5026854;28;20475;-68
2022/10/31 03:58:02;;;;;;;0.67;0.67;;;7.10;99.90;;;;;;5048574;28;21001;-68
2022/10/31 04:00:32;;;;;;;1.50;0.73;;;7.20;99.90;;;;;;5045892;28;20436;-68
2022/10/31 04:03:10;;;;;;;1.00;1.00;;;7.20;99.90;;;;;;5046339;28;20433;-68
2022/10/31 04:05:38;;;;;;;0.77;0.77;;;7.30;99.90;;;;;;5045600;28;20429;-69
2022/10/31 04:08:11;;;;;;;0.47;0.47;;;7.30;99.90;;;;;;5041972;28;20438;-68
2022/10/31 04:10:43;;;;;;;0.77;0.77;;;7.20;99.90;;;;;;5042888;28;20516;-68
2022/10/31 04:13:18;;;;;;;0.52;0.52;;;7.20;99.90;;;;;;5045799;28;20432;-68
2022/10/31 04:15:54;;;;;;;1.02;0.73;;;7.20;99.90;;;;;;5044255;28;20428;-68
2022/10/31 04:18:23;;;;;;;0.90;0.90;;;7.20;99.90;;;;;;5045702;28;20436;-68
2022/10/31 04:20:59;;;;;;;0.60;0.60;;;7.20;99.90;;;;;;5056561;28;20451;-68
2022/10/31 04:23:27;;;;;;;1.17;1.10;;;7.20;99.90;;;;;;5103475;27;20432;-68
2022/10/31 04:25:54;;;;;;;1.70;0.80;;;7.20;99.90;;;;;;5099717;28;20463;-68
2022/10/31 04:28:20;;;;;;;1.33;0.80;;;7.20;99.90;;;;;;5105981;27;20817;-68
2022/10/31 04:30:47;;;;;;;1.60;0.77;;;7.10;99.90;;;;;;5109449;28;20977;-68
2022/10/31 04:33:14;;;;;;;1.10;0.80;;;7.10;99.90;;;;;;5107849;28;20432;-68
2022/10/31 04:35:41;;;;;;;0.73;0.73;;;7.10;99.90;;;;;;5091358;28;20431;-68
2022/10/31 04:38:07;;;;;;;0.63;0.63;;;7.20;99.90;;;;;;5098132;28;20419;-68
2022/10/31 04:40:34;;;;;;;1.80;0.57;;;7.30;99.90;;;;;;5091756;28;20430;-68
2022/10/31 04:43:03;;;;;;;1.67;1.10;;;7.50;99.90;;;;;;5102166;28;20510;-69
2022/10/31 04:45:33;;;;;;;2.10;1.00;;;7.60;99.90;;;;;;5106206;28;20795;-68
2022/10/31 04:48:00;;;;;;;1.90;1.00;;;7.70;99.90;;;;;;5098666;28;20426;-69
2022/10/31 04:50:27;;;;;;;1.13;1.02;;;7.70;99.90;;;;;;5101665;28;20450;-68
2022/10/31 04:52:54;;;;;;;1.20;1.07;;;7.80;99.90;;;;;;5077599;28;20428;-69
2022/10/31 04:55:20;;;;;;;1.67;0.77;;;7.70;99.90;;;;;;5100926;28;20437;-69
2022/10/31 04:57:49;;;;;;;0.95;0.95;;;7.60;99.90;;;;;;5105612;28;20419;-69
2022/10/31 05:00:19;;;;;;;2.97;0.98;;;7.60;99.90;;;;;;5103135;28;20427;-68
2022/10/31 05:02:53;;;;;;;1.02;0.95;;;7.50;99.90;;;;;;5097900;27;21536;-68
2022/10/31 05:05:25;;;;;;;0.77;0.77;;;7.50;99.90;;;;;;5101504;27;20453;-69
2022/10/31 05:07:55;;;;;;;0.90;0.85;;;7.40;99.90;;;;;;5099718;28;20429;-69
2022/10/31 05:10:25;;;;;;;1.02;1.02;;;7.30;99.90;;;;;;5090723;28;20447;-69
2022/10/31 05:12:56;;;;;;;0.47;0.47;;;7.30;99.90;;;;;;5094552;27;20496;-68
2022/10/31 05:15:25;;;;;;;0.93;0.93;;;7.20;99.90;;;;;;5097785;28;20457;-69
2022/10/31 05:17:53;;;;;;;0.80;0.80;;;7.30;99.90;;;;;;5105054;27;20431;-68
2022/10/31 05:20:22;;;;;;;1.35;1.08;;;7.30;99.90;;;;;;5105971;28;20424;-69
2022/10/31 05:22:51;;;;;;;0.80;0.80;;;7.20;99.90;;;;;;5093871;27;20430;-68
2022/10/31 05:25:20;;;;;;;0.88;0.88;;;7.20;99.90;;;;;;5095560;28;20510;-68
2022/10/31 05:27:48;;;;;;;1.85;0.77;;;7.10;99.90;;;;;;5099797;28;20435;-69
2022/10/31 05:30:18;;;;;;;1.15;1.05;;;7.20;99.90;;;;;;5106591;27;20484;-68
2022/10/31 05:32:47;;;;;;;2.80;0.90;;;7.20;99.90;;;;;;5109294;27;20424;-69
2022/10/31 05:35:16;;;;;;;0.80;0.80;;;7.20;99.90;;;;;;5102380;27;20944;-69
2022/10/31 05:37:43;;;;;;;0.80;0.80;;;7.10;99.90;;;;;;5090145;28;20424;-69
2022/10/31 05:40:14;;;;;;;1.10;1.00;;;7.10;99.90;;;;;;5106328;28;20431;-69
2022/10/31 05:42:42;;;;;;;0.70;0.70;;;7.00;99.90;;;;;;5105180;27;20429;-69
2022/10/31 05:45:11;;;;;;;1.10;1.10;;;7.00;99.90;;;;;;5105816;28;20427;-69
2022/10/31 05:47:39;;;;;;;1.13;1.08;;;7.00;99.90;;;;;;5099370;27;20439;-69
2022/10/31 05:50:07;;;;;;;0.55;0.55;;;7.00;99.90;;;;;;5097727;28;20484;-69
2022/10/31 05:52:34;;;;;;;0.80;0.80;;;7.00;99.90;;;;;;5104480;27;20439;-69
2022/10/31 05:55:01;;;;;;;1.20;0.90;;;6.90;99.90;;;;;;5094465;28;20906;-69
2022/10/31 05:57:29;;;;;;;1.00;0.90;;;6.90;99.90;;;;;;5098109;28;20505;-69
2022/10/31 05:59:58;;;;;;;1.05;1.05;;;6.90;99.90;;;;;;5105801;28;20833;-69
2022/10/31 06:02:26;;;;;;;0.90;0.65;;;7.00;99.90;;;;;;5107062;28;20428;-69
2022/10/31 06:04:55;;;;;;;0.90;0.75;;;6.90;99.90;;;;;;5100674;28;20452;-69
2022/10/31 06:07:22;;;;;;;1.13;0.85;;;6.90;99.90;;;;;;5106917;27;20462;-69
2022/10/31 06:09:51;;;;;;;0.60;0.60;;;7.00;99.90;;;;;;5092391;27;20456;-69
2022/10/31 06:12:17;;;;;;;0.60;0.60;;;7.00;99.90;;;;;;5094062;28;20480;-69
2022/10/31 06:14:44;;;;;;;0.95;0.95;;;7.00;99.90;;;;;;5099270;27;20425;-69
2022/10/31 06:17:11;;;;;;;1.30;1.20;;;7.10;99.90;;;;;;5108184;27;20902;-69
2022/10/31 06:19:37;;;;;;;1.00;0.73;;;7.10;99.90;;;;;;5094411;28;20449;-69
2022/10/31 06:22:07;;;;;;;1.07;1.07;;;7.10;99.90;;;;;;5091174;28;20437;-69
2022/10/31 06:24:34;;;;;;;0.82;0.82;;;7.10;99.90;;;;;;5099430;27;20428;-69
2022/10/31 06:27:01;;;;;;;1.25;1.15;;;7.20;99.90;;;;;;5106413;28;20432;-69
2022/10/31 06:29:29;;;;;;;1.00;1.00;;;7.30;99.90;;;;;;5095943;28;20484;-69
2022/10/31 06:31:56;;;;;;;1.48;0.88;;;7.40;99.90;;;;;;5104666;27;20423;-69
2022/10/31 06:34:23;;;;;;;1.00;1.00;;;7.50;99.90;;;;;;5099301;28;20975;-69
2022/10/31 06:36:53;;;;;;;1.20;1.10;;;7.60;99.90;;;;;;5099649;27;20440;-69
2022/10/31 06:39:20;;;;;;;0.98;0.98;;;7.70;99.90;;;;;;5095658;27;20417;-68
2022/10/31 06:41:49;;;;;;;1.00;1.00;;;7.80;99.90;;;;;;5102529;27;21082;-68
2022/10/31 06:44:16;;;;;;;1.15;1.15;;;8.00;99.90;;;;;;5104463;27;20632;-69
2022/10/31 06:46:43;;;;;;;1.08;0.98;;;8.10;99.90;;;;;;5082759;28;20494;-68
2022/10/31 06:49:10;;;;;;;0.90;0.80;;;8.30;99.90;;;;;;5090687;28;20611;-68
2022/10/31 06:51:39;;;;;;;0.77;0.77;;;8.50;99.90;;;;;;5097408;28;20456;-68
2022/10/31 06:54:08;;;;;;;1.10;1.10;;;8.70;99.90;;;;;;5108983;28;20420;-68
2022/10/31 06:56:35;;;;;;;0.88;0.88;;;8.90;99.90;;;;;;5102540;28;20432;-68
2022/10/31 06:59:02;;;;;;;1.10;1.10;;;9.20;99.90;;;;;;5096480;27;20861;-68
2022/10/31 07:01:31;;;;;;;1.20;1.02;;;9.60;99.90;;;;;;5083023;28;20938;-68
2022/10/31 07:04:01;;;;;;;0.85;0.85;;;9.90;99.90;;;;;;5096238;28;20841;-68
2022/10/31 07:06:27;;;;;;;1.42;1.33;;;10.20;99.90;;;;;;5102381;28;20430;-68
2022/10/31 07:08:54;;;;;;;1.13;1.10;;;10.40;99.90;;;;;;5094243;28;20485;-68
2022/10/31 07:11:21;;;;;;;1.52;1.42;;;10.60;99.90;;;;;;5094610;28;20428;-68
2022/10/31 07:13:47;;;;;;;0.83;0.83;;;10.80;99.90;;;;;;5091118;28;20425;-68
2022/10/31 07:16:14;;;;;;;1.70;0.80;;;11.00;99.90;;;;;;5095445;28;20427;-68
2022/10/31 07:18:41;;;;;;;1.33;1.23;;;11.10;99.90;;;;;;5093359;28;20426;-68
2022/10/31 07:21:07;;;;;;;4.65;1.30;;;11.10;99.90;;;;;;5099322;28;20431;-67
2022/10/31 07:23:34;;;;;;;1.70;1.25;;;11.00;99.90;;;;;;5079757;28;20446;-68
2022/10/31 07:26:03;;;;;;;1.25;1.15;;;10.90;99.90;;;;;;5094528;28;20429;-67
2022/10/31 07:28:30;;;;;;;1.88;1.40;;;10.80;99.90;;;;;;5100500;28;20437;-67
2022/10/31 07:30:57;;;;;;;1.08;1.08;;;10.90;99.90;;;;;;5099949;28;20503;-68
2022/10/31 07:33:27;;;;;;;1.17;1.07;;;11.10;99.90;;;;;;5101009;28;20425;-67
2022/10/31 07:35:54;;;;;;;1.10;1.10;;;11.30;99.90;;;;;;5102123;28;20447;-67
2022/10/31 07:38:21;;;;;;;1.27;1.17;;;11.50;99.90;;;;;;5104920;28;21029;-68
2022/10/31 07:40:55;;;;;;;6.53;1.90;;;11.60;99.90;;;;;;5099736;28;20424;-66
2022/10/31 07:43:22;;;;;;;1.50;1.40;;;11.90;99.90;;;;;;5096734;28;20434;-65
2022/10/31 07:45:51;;;;;;;1.10;1.00;;;12.00;99.90;;;;;;5098397;28;20430;-65
2022/10/31 07:48:17;;;;;;;1.30;1.20;;;12.10;99.90;;;;;;5094289;28;20429;-65
2022/10/31 07:50:44;;;;;;;2.80;1.63;;;12.30;99.90;;;;;;5097468;28;20425;-66
2022/10/31 07:53:12;;;;;;;3.67;1.80;;;12.40;99.90;;;;;;5093277;28;20882;-65
2022/10/31 07:55:40;;;;;;;1.85;1.63;;;12.30;99.90;;;;;;5093878;28;20430;-65
2022/10/31 07:58:09;;;;;;;2.70;1.80;;;12.40;99.90;;;;;;5097427;28;20430;-65
2022/10/31 08:00:38;;;;;;;1.70;1.60;;;12.70;99.90;;;;;;5102245;28;20420;-65
2022/10/31 08:03:07;;;;;;;2.05;1.52;;;12.80;99.90;;;;;;5100063;28;20467;-65
2022/10/31 08:05:36;;;;;;;2.85;1.80;;;12.80;99.90;;;;;;5107748;28;20859;-65
2022/10/31 08:08:04;;;;;;;4.93;1.83;;;12.90;99.90;;;;;;5095869;28;20424;-65
2022/10/31 08:10:34;;;;;;;1.90;1.75;;;13.00;99.90;;;;;;5087356;28;20476;-65
2022/10/31 08:13:05;;;;;;;2.63;1.50;;;12.80;99.90;;;;;;5071996;28;20729;-66
2022/10/31 08:15:36;;;;;;;1.35;1.25;;;12.70;99.90;;;;;;5097616;27;20446;-67
2022/10/31 08:18:04;;;;;;;1.87;1.77;;;12.60;99.90;;;;;;5098810;28;20900;-66
2022/10/31 08:20:30;;;;;;;1.75;1.40;;;12.60;99.90;;;;;;5098583;28;20431;-67
2022/10/31 08:23:00;;;;;;;3.35;1.73;;;12.60;99.90;;;;;;5100647;28;20489;-67
2022/10/31 08:25:30;;;;;;;3.88;1.60;;;12.50;99.90;;;;;;5102033;28;20427;-65
2022/10/31 08:28:03;;;;;;;2.37;1.40;;;12.50;99.90;;;;;;5100749;28;20460;-66
2022/10/31 08:30:32;;;;;;;1.55;1.40;;;12.50;99.90;;;;;;5106006;27;20426;-67
2022/10/31 08:33:08;;;;;;;1.52;1.20;;;12.40;99.90;;;;;;5100938;28;20426;-69
2022/10/31 08:35:34;;;;;;;1.85;1.42;;;12.50;99.90;;;;;;5097998;27;20432;-70
2022/10/31 08:38:02;;;;;;;1.23;1.23;;;12.50;99.90;;;;;;5088189;27;21033;-70
2022/10/31 08:40:31;;;;;;;1.60;1.50;;;12.70;99.90;;;;;;5101344;27;20483;-69
2022/10/31 08:43:04;;;;;;;1.42;1.33;;;12.80;99.90;;;;;;5105245;27;20429;-69
2022/10/31 08:45:32;;;;;;;1.75;1.65;;;12.90;99.90;;;;;;5105737;27;20430;-69
2022/10/31 08:48:00;;;;;;;2.85;1.45;;;13.00;99.90;;;;;;5105822;27;21964;-69
2022/10/31 08:50:31;;;;;;;1.57;1.47;;;13.20;49.60;;;;;;5095274;28;20426;-69
2022/10/31 08:53:12;;;;;;;2.35;1.60;;;13.40;1.00;;;;;;5106382;27;21169;-69
2022/10/31 08:55:42;;;;;;;1.33;1.33;;;13.40;1.00;;;;;;5103924;27;20473;-69
2022/10/31 08:58:19;;;;;;;8.57;1.55;;;13.40;99.90;;;;;;5098284;27;20470;-69
2022/10/31 09:00:48;;;;;;;1.17;1.17;;;13.40;99.90;;;;;;5102312;27;20443;-69
2022/10/31 09:03:20;;;;;;;3.47;1.58;;;13.70;1.00;;;;;;5100140;27;20463;-69
2022/10/31 09:05:46;;;;;;;1.90;1.70;;;13.80;1.00;;;;;;5097171;27;20920;-69
2022/10/31 09:08:14;;;;;;;2.58;1.15;;;14.10;99.90;;;;;;5099218;27;20428;-69
2022/10/31 09:10:43;;;;;;;1.50;1.40;;;14.30;1.00;;;;;;5095636;27;20454;-69
2022/10/31 09:13:13;;;;;;;2.35;1.35;;;14.50;1.00;;;;;;5101626;27;20786;-70
2022/10/31 09:15:41;;;;;;;1.42;1.33;;;14.70;99.90;;;;;;5102669;27;20432;-70
2022/10/31 09:18:09;;;;;;;1.13;1.03;;;14.80;99.90;;;;;;5103980;28;20433;-69
2022/10/31 09:20:40;;;;;;;1.83;1.42;;;14.80;18.10;;;;;;5105098;27;20942;-69
2022/10/31 09:23:11;;;;;;;1.75;1.15;;;14.90;1.00;;;;;;5099897;28;20479;-70
2022/10/31 09:25:41;;;;;;;1.15;1.13;;;14.90;1.00;;;;;;5097445;28;20465;-69
2022/10/31 09:28:20;;;;;;;1.10;1.10;;;15.00;1.00;;;;;;5097227;27;20425;-69
2022/10/31 09:30:49;;;;;;;1.48;1.38;;;14.90;1.00;;;;;;5098346;28;20436;-69
2022/10/31 09:33:16;;;;;;;1.80;1.42;;;15.00;1.00;;;;;;5092508;28;20422;-69
2022/10/31 09:35:45;;;;;;;2.07;1.60;;;15.10;1.00;;;;;;5101561;28;20460;-69
2022/10/31 09:38:22;;;;;;;1.63;1.25;;;15.20;1.00;;;;;;5114126;27;20515;-69
2022/10/31 09:41:16;;;;;;;1.15;1.15;;;15.30;1.00;;;;;;5099251;27;20436;-69
2022/10/31 09:43:56;;;;;;;1.30;1.30;;;15.50;1.00;;;;;;5099635;27;20428;-69
2022/10/31 09:46:46;;;;;;;2.10;1.50;;;15.70;1.00;;;;;;5097115;27;20437;-69
2022/10/31 09:49:48;;;;;;;1.60;1.50;;;15.80;1.00;;;;;;5103707;27;20424;-67
2022/10/31 09:52:30;;;;;;;3.00;1.33;;;16.00;1.00;;;;;;5101418;27;20835;-67
2022/10/31 09:55:05;;;;;;;1.60;1.50;;;16.00;1.00;;;;;;5095363;27;20437;-66
2022/10/31 09:57:35;;;;;;;1.45;1.33;;;16.00;99.90;;;;;;5085536;28;20792;-67
2022/10/31 10:00:05;;;;;;;1.88;1.77;;;15.90;99.90;;;;;;5092173;27;20483;-66
2022/10/31 10:02:49;;;;;;;1.58;1.48;;;15.80;99.90;;;;;;5089229;28;21168;-67
2022/10/31 10:05:30;;;;;;;1.90;1.77;;;15.80;99.90;;;;;;5100115;27;20425;-67
2022/10/31 10:08:23;;;;;;;2.95;1.33;;;15.90;99.90;;;;;;5095052;27;20421;-67
2022/10/31 10:11:08;;;;;;;2.95;1.52;;;15.90;99.90;;;;;;5097734;27;20450;-67
2022/10/31 10:14:06;;;;;;;4.35;1.58;;;16.00;99.90;;;;;;5105002;27;20419;-67
2022/10/31 10:17:06;;;;;;;1.90;1.73;;;16.10;99.90;;;;;;5097722;28;20968;-67
2022/10/31 10:19:42;;;;;;;3.08;1.35;;;16.10;99.90;;;;;;5104863;27;20420;-67
2022/10/31 10:22:31;;;;;;;2.03;1.92;;;16.20;99.90;;;;;;5081098;27;20456;-67
2022/10/31 10:25:14;;;;;;;1.60;1.60;;;16.40;99.90;;;;;;5073385;28;20473;-68
2022/10/31 10:28:08;;;;;;;1.92;1.83;;;16.60;99.90;;;;;;5097906;27;20432;-67
2022/10/31 10:30:59;;;;;;;3.40;1.90;;;16.90;99.90;;;;;;5090123;28;20485;-65
2022/10/31 10:33:50;;;;;;;1.85;1.75;;;17.10;99.90;;;;;;5101087;27;20426;-65
2022/10/31 10:36:26;;;;;;;2.03;1.70;;;17.20;99.90;;;;;;5093875;27;21146;-66
2022/10/31 10:38:59;;;;;;;4.38;1.80;;;17.30;99.90;;;;;;5100815;27;20469;-66
2022/10/31 10:41:32;;;;;;;2.40;1.60;;;17.50;99.90;;;;;;5088334;28;20428;-66
2022/10/31 10:44:01;;;;;;;2.45;1.33;;;17.60;99.90;;;;;;5103045;27;21055;-66
2022/10/31 10:49:52;;;;;;;1.70;1.60;;;18.10;99.90;;;;;;5099982;28;20427;-66
2022/10/31 10:52:49;;;;;;;2.20;2.00;;;18.60;99.90;;;;;;5088686;28;20428;-67
2022/10/31 10:55:19;;;;;;;1.88;1.73;;;18.80;99.90;;;;;;5092396;28;20430;-67
2022/10/31 10:58:03;;;;;;;1.87;1.77;;;19.10;99.90;;;;;;5092670;28;21173;-67
2022/10/31 11:00:34;;;;;;;1.95;1.77;;;19.40;99.90;;;;;;5104504;27;20433;-67
2022/10/31 11:03:01;;;;;;;2.50;2.30;;;19.90;99.90;;;;;;5090739;28;20443;-66
2022/10/31 11:06:22;;;;;;;1.92;1.83;;;20.00;99.90;;;;;;5107659;28;20420;-66
2022/10/31 11:08:49;;;;;;;1.50;1.50;;;19.70;99.90;;;;;;5016891;28;20435;-66
2022/10/31 11:11:45;;;;;;;1.95;1.67;;;19.90;99.90;;;;;;5014858;28;20496;-66
2022/10/31 11:14:15;;;;;;;2.57;2.23;;;19.70;99.90;;;;;;4999310;28;20488;-66
2022/10/31 11:16:51;;;;;;;2.70;1.80;;;19.90;99.90;;;;;;5019288;28;20791;-66
2022/10/31 11:19:22;;;;;;;2.90;1.88;;;20.10;99.90;;;;;;5017452;28;20763;-66
2022/10/31 11:21:49;;;;;;;1.67;1.52;;;20.30;99.90;;;;;;5018664;28;20430;-66
2022/10/31 11:24:21;;;;;;;1.37;1.27;;;20.30;99.90;;;;;;5016985;28;20924;-66
2022/10/31 11:26:50;;;;;;;1.25;1.25;;;20.30;99.90;;;;;;5021359;28;21441;-67
2022/10/31 11:29:27;;;;;;;1.50;1.40;;;19.90;99.90;;;;;;5021525;28;20486;-66
2022/10/31 11:31:56;;;;;;;1.50;1.40;;;19.90;99.90;;;;;;5020797;28;20456;-67
2022/10/31 11:34:33;;;;;;;3.13;1.50;;;20.00;99.90;;;;;;5015337;28;20434;-67
2022/10/31 11:37:18;;;;;;;1.47;1.30;;;20.10;99.90;;;;;;5012613;28;20427;-67
2022/10/31 11:39:53;;;;;;;2.40;1.55;;;20.00;99.90;;;;;;5076780;28;20536;-66
2022/10/31 11:42:30;;;;;;;1.15;1.15;;;20.30;99.90;;;;;;5108946;28;20430;-67
2022/10/31 11:44:57;;;;;;;2.00;1.10;;;20.40;99.90;;;;;;5090972;28;20443;-66
2022/10/31 11:47:29;;;;;;;1.20;1.10;;;20.70;99.90;;;;;;5094331;27;20535;-67
2022/10/31 11:50:00;;;;;;;4.72;1.40;;;21.20;99.90;;;;;;5100037;27;20436;-67
2022/10/31 11:52:30;;;;;;;1.58;1.13;;;21.40;99.90;;;;;;5100888;27;20834;-67
2022/10/31 11:55:29;;;;;;;1.50;1.40;;;21.60;99.90;;;;;;5106371;27;20424;-67
2022/10/31 11:57:57;;;;;;;1.30;1.20;;;22.00;99.90;;;;;;5105813;27;20422;-66
2022/10/31 12:00:27;;;;;;;1.20;0.90;;;22.10;99.90;;;;;;5104237;27;20460;-65
2022/10/31 12:03:17;;;;;;;1.10;1.10;;;22.30;99.90;;;;;;5102433;27;20873;-65
2022/10/31 12:05:48;;;;;;;2.23;1.90;;;22.30;99.90;;;;;;5103638;27;20505;-65
2022/10/31 12:08:15;;;;;;;0.93;0.93;;;21.90;99.90;;;;;;5111717;27;20431;-66
2022/10/31 12:11:14;;;;;;;2.10;1.60;;;22.30;99.90;;;;;;5106957;27;20437;-66
2022/10/31 12:14:11;;;;;;;1.00;1.00;;;22.30;99.90;;;;;;5101581;27;20446;-66
2022/10/31 12:17:00;;;;;;;1.60;1.30;;;22.40;99.90;;;;;;5107226;27;20820;-66
2022/10/31 12:19:33;;;;;;;1.92;1.42;;;22.10;99.90;;;;;;5098934;27;20904;-66
2022/10/31 12:22:07;;;;;;;2.47;1.00;;;21.80;99.90;;;;;;5106335;28;20424;-66
2022/10/31 12:24:37;;;;;;;1.70;1.60;;;21.80;99.90;;;;;;5102478;27;20433;-66
2022/10/31 12:27:27;;;;;;;1.33;1.20;;;21.90;99.90;;;;;;5120163;27;21203;-65
2022/10/31 12:30:15;;;;;;;1.10;1.10;;;22.10;99.90;;;;;;5122036;27;20424;-65
2022/10/31 12:33:13;;;;;;;0.90;0.90;;;22.30;99.90;;;;;;5096946;27;20428;-66
2022/10/31 12:35:49;;;;;;;1.05;1.05;;;22.10;99.90;;;;;;5101386;27;20429;-66
2022/10/31 12:38:34;;;;;;;1.38;1.27;;;21.80;99.90;;;;;;5101476;27;20437;-65
2022/10/31 12:41:24;;;;;;;3.03;1.20;;;21.60;99.90;;;;;;5105609;27;20428;-65
2022/10/31 12:43:53;;;;;;;0.90;0.85;;;21.70;99.90;;;;;;5055230;27;20422;-65
2022/10/31 12:46:33;;;;;;;1.30;1.20;;;21.60;99.90;;;;;;5112793;27;20427;-66
2022/10/31 12:49:16;;;;;;;1.33;1.23;;;21.60;99.90;;;;;;5099623;27;20437;-65
2022/10/31 12:52:07;;;;;;;2.22;1.00;;;21.30;99.90;;;;;;5097465;27;20483;-65
2022/10/31 12:55:10;;;;;;;1.40;1.00;;;21.20;99.90;;;;;;5112050;27;20433;-66
2022/10/31 12:57:47;;;;;;;1.08;1.00;;;21.20;99.90;;;;;;5096717;27;20483;-65
2022/10/31 13:00:16;;;;;;;1.80;1.10;;;20.90;99.90;;;;;;5107959;27;20437;-65
2022/10/31 13:03:18;;;;;;;1.13;1.02;;;20.70;99.90;;;;;;5109392;27;20428;-65
2022/10/31 13:05:51;;;;;;;0.80;0.80;;;20.40;99.90;;;;;;5092139;27;20414;-66
2022/10/31 13:08:25;;;;;;;2.65;1.20;;;20.20;99.90;;;;;;5096743;27;20435;-67
2022/10/31 13:11:20;;;;;;;1.42;1.30;;;20.20;99.90;;;;;;5112212;27;20428;-66
2022/10/31 13:14:07;;;;;;;2.70;1.13;;;20.10;99.90;;;;;;5085161;27;20467;-66
2022/10/31 13:16:39;;;;;;;1.40;0.97;;;20.20;99.90;;;;;;5095028;27;20538;-66
2022/10/31 13:19:22;;;;;;;2.28;0.98;;;20.10;99.90;;;;;;5100260;27;20430;-67
2022/10/31 13:22:06;;;;;;;1.20;1.10;;;20.20;99.90;;;;;;5099222;27;20430;-66
2022/10/31 13:24:56;;;;;;;0.93;0.93;;;20.20;99.90;;;;;;5113337;27;20435;-66
2022/10/31 13:27:28;;;;;;;1.40;1.00;;;20.30;99.90;;;;;;5102142;27;20422;-66
2022/10/31 13:30:13;;;;;;;1.98;1.20;;;20.20;99.90;;;;;;5101462;27;20521;-66